sensor_id;sensor_type;location;lat;lon;timestamp;pressure;altitude;pressure_sealevel;temperature;humidity
62290;BME280;48284;46.828;29.480;2022-10-15T00:01:45;102075.72;;;21.28;55.76
62290;BME280;48284;46.828;29.480;2022-10-15T00:04:14;102074.28;;;21.26;56.01
62290;BME280;48284;46.828;29.480;2022-10-15T00:06:42;102069.22;;;21.24;55.85
62290;BME280;48284;46.828;29.480;2022-10-15T00:09:11;102073.47;;;21.25;55.66
62290;BME280;48284;46.828;29.480;2022-10-15T00:11:39;102071.84;;;21.24;56.12
62290;BME280;48284;46.828;29.480;2022-10-15T00:14:08;102064.81;;;21.25;55.78
62290;BME280;48284;46.828;29.480;2022-10-15T00:16:37;102070.03;;;21.25;55.60
62290;BME280;48284;46.828;29.480;2022-10-15T00:19:06;102072.66;;;21.25;56.09
62290;BME280;48284;46.828;29.480;2022-10-15T00:21:35;102069.06;;;21.26;55.67
62290;BME280;48284;46.828;29.480;2022-10-15T00:24:04;102069.22;;;21.24;56.01
62290;BME280;48284;46.828;29.480;2022-10-15T00:26:32;102065.88;;;21.15;55.64
62290;BME280;48284;46.828;29.480;2022-10-15T00:29:02;102069.75;;;21.05;55.99
62290;BME280;48284;46.828;29.480;2022-10-15T00:31:31;102066.16;;;21.06;55.95
62290;BME280;48284;46.828;29.480;2022-10-15T00:34:02;102072.63;;;21.10;55.70
62290;BME280;48284;46.828;29.480;2022-10-15T00:36:32;102066.06;;;21.14;55.78
62290;BME280;48284;46.828;29.480;2022-10-15T00:39:02;102076.13;;;21.17;55.76
62290;BME280;48284;46.828;29.480;2022-10-15T00:41:33;102073.16;;;21.20;55.77
62290;BME280;48284;46.828;29.480;2022-10-15T00:47:11;102062.09;;;21.18;55.73
62290;BME280;48284;46.828;29.480;2022-10-15T00:49:45;102070.91;;;21.17;55.35
62290;BME280;48284;46.828;29.480;2022-10-15T00:52:18;102067.50;;;21.16;55.47
62290;BME280;48284;46.828;29.480;2022-10-15T00:54:52;102065.06;;;21.15;55.67
62290;BME280;48284;46.828;29.480;2022-10-15T00:57:23;102053.63;;;21.16;55.43
62290;BME280;48284;46.828;29.480;2022-10-15T00:59:56;102058.84;;;21.16;55.63
62290;BME280;48284;46.828;29.480;2022-10-15T01:02:26;102065.88;;;21.15;55.66
62290;BME280;48284;46.828;29.480;2022-10-15T01:04:55;102064.25;;;21.14;55.56
62290;BME280;48284;46.828;29.480;2022-10-15T01:07:24;102065.88;;;21.15;55.32
62290;BME280;48284;46.828;29.480;2022-10-15T01:09:53;102072.91;;;21.15;55.78
62290;BME280;48284;46.828;29.480;2022-10-15T01:12:34;102080.72;;;21.15;55.12
62290;BME280;48284;46.828;29.480;2022-10-15T01:15:09;102081.72;;;21.14;55.24
62290;BME280;48284;46.828;29.480;2022-10-15T01:17:46;102064.25;;;21.14;55.07
62290;BME280;48284;46.828;29.480;2022-10-15T01:20:49;102072.72;;;21.16;55.25
62290;BME280;48284;46.828;29.480;2022-10-15T01:23:55;102071.91;;;21.16;54.89
62290;BME280;48284;46.828;29.480;2022-10-15T01:26:56;102077.50;;;21.13;55.45
62290;BME280;48284;46.828;29.480;2022-10-15T01:29:45;102070.81;;;21.10;55.04
62290;BME280;48284;46.828;29.480;2022-10-15T01:32:20;102063.00;;;21.10;55.30
62290;BME280;48284;46.828;29.480;2022-10-15T01:34:54;102075.88;;;21.12;55.37
62290;BME280;48284;46.828;29.480;2022-10-15T01:37:30;102073.25;;;21.12;55.17
62290;BME280;48284;46.828;29.480;2022-10-15T01:40:06;102074.25;;;21.11;54.74
62290;BME280;48284;46.828;29.480;2022-10-15T01:42:45;102077.66;;;21.11;54.95
62290;BME280;48284;46.828;29.480;2022-10-15T01:45:19;102080.28;;;21.11;55.38
62290;BME280;48284;46.828;29.480;2022-10-15T01:48:04;102076.69;;;21.12;55.10
62290;BME280;48284;46.828;29.480;2022-10-15T01:50:38;102076.31;;;21.15;55.29
62290;BME280;48284;46.828;29.480;2022-10-15T01:53:08;102079.75;;;21.16;55.15
62290;BME280;48284;46.828;29.480;2022-10-15T01:55:41;102077.13;;;21.16;55.25
62290;BME280;48284;46.828;29.480;2022-10-15T01:58:11;102078.75;;;21.17;55.08
62290;BME280;48284;46.828;29.480;2022-10-15T02:00:43;102071.72;;;21.17;54.71
62290;BME280;48284;46.828;29.480;2022-10-15T02:03:13;102072.53;;;21.18;54.52
62290;BME280;48284;46.828;29.480;2022-10-15T02:05:46;102072.53;;;21.18;54.65
62290;BME280;48284;46.828;29.480;2022-10-15T02:08:27;102073.53;;;21.17;54.18
62290;BME280;48284;46.828;29.480;2022-10-15T02:10:59;102081.09;;;21.12;54.49
62290;BME280;48284;46.828;29.480;2022-10-15T02:13:35;102069.84;;;21.11;54.70
62290;BME280;48284;46.828;29.480;2022-10-15T02:16:11;102082.72;;;21.13;54.75
62290;BME280;48284;46.828;29.480;2022-10-15T02:18:47;102075.50;;;21.15;54.90
62290;BME280;48284;46.828;29.480;2022-10-15T02:21:21;102073.53;;;21.17;54.16
62290;BME280;48284;46.828;29.480;2022-10-15T02:23:53;102071.91;;;21.16;54.66
62290;BME280;48284;46.828;29.480;2022-10-15T02:26:27;102074.06;;;21.12;54.36
62290;BME280;48284;46.828;29.480;2022-10-15T02:28:58;102083.69;;;21.12;54.64
62290;BME280;48284;46.828;29.480;2022-10-15T02:31:29;102081.09;;;21.12;54.04
62290;BME280;48284;46.828;29.480;2022-10-15T02:34:04;102086.66;;;21.09;54.09
62290;BME280;48284;46.828;29.480;2022-10-15T02:36:38;102077.03;;;21.09;54.50
62290;BME280;48284;46.828;29.480;2022-10-15T02:39:10;102072.00;;;21.08;53.98
62290;BME280;48284;46.828;29.480;2022-10-15T02:41:40;102069.38;;;21.08;54.43
62290;BME280;48284;46.828;29.480;2022-10-15T02:44:12;102064.00;;;21.09;53.87
62290;BME280;48284;46.828;29.480;2022-10-15T02:46:40;102067.41;;;21.10;53.77
62290;BME280;48284;46.828;29.480;2022-10-15T02:49:11;102062.38;;;21.08;54.21
62290;BME280;48284;46.828;29.480;2022-10-15T02:51:40;102067.59;;;21.08;53.89
62290;BME280;48284;46.828;29.480;2022-10-15T02:54:08;102059.94;;;21.07;53.76
62290;BME280;48284;46.828;29.480;2022-10-15T02:56:37;102054.34;;;21.10;53.46
62290;BME280;48284;46.828;29.480;2022-10-15T02:59:06;102053.72;;;21.08;53.75
62290;BME280;48284;46.828;29.480;2022-10-15T03:01:35;102054.09;;;21.05;54.11
62290;BME280;48284;46.828;29.480;2022-10-15T03:04:04;102066.50;;;21.03;54.15
62290;BME280;48284;46.828;29.480;2022-10-15T03:06:34;102054.44;;;21.02;53.77
62290;BME280;48284;46.828;29.480;2022-10-15T03:09:04;102059.66;;;21.02;54.10
62290;BME280;48284;46.828;29.480;2022-10-15T03:11:33;102065.69;;;21.02;53.95
62290;BME280;48284;46.828;29.480;2022-10-15T03:14:01;102057.06;;;21.02;54.30
62290;BME280;48284;46.828;29.480;2022-10-15T03:16:31;102060.13;;;21.05;53.93
62290;BME280;48284;46.828;29.480;2022-10-15T03:19:00;102054.44;;;21.02;53.97
62290;BME280;48284;46.828;29.480;2022-10-15T03:21:29;102055.44;;;21.01;54.03
62290;BME280;48284;46.828;29.480;2022-10-15T03:24:07;102052.81;;;21.01;53.95
62290;BME280;48284;46.828;29.480;2022-10-15T03:26:36;102046.63;;;21.02;53.73
62290;BME280;48284;46.828;29.480;2022-10-15T03:29:04;102051.84;;;21.02;53.89
62290;BME280;48284;46.828;29.480;2022-10-15T03:31:49;102049.41;;;21.00;53.54
62290;BME280;48284;46.828;29.480;2022-10-15T03:34:17;102052.03;;;21.00;53.94
62290;BME280;48284;46.828;29.480;2022-10-15T03:36:46;102043.38;;;21.00;53.63
62290;BME280;48284;46.828;29.480;2022-10-15T03:39:16;102043.38;;;21.00;53.96
62290;BME280;48284;46.828;29.480;2022-10-15T03:41:45;102046.00;;;21.00;53.57
62290;BME280;48284;46.828;29.480;2022-10-15T03:44:21;102046.97;;;20.99;53.23
62290;BME280;48284;46.828;29.480;2022-10-15T03:47:02;102047.97;;;20.98;53.14
62290;BME280;48284;46.828;29.480;2022-10-15T03:49:40;102051.56;;;20.97;53.45
62290;BME280;48284;46.828;29.480;2022-10-15T03:52:08;102047.34;;;20.96;53.27
62290;BME280;48284;46.828;29.480;2022-10-15T03:54:39;102043.75;;;20.97;53.48
62290;BME280;48284;46.828;29.480;2022-10-15T03:57:09;102047.16;;;20.97;53.57
62290;BME280;48284;46.828;29.480;2022-10-15T03:59:44;102037.72;;;20.96;53.32
62290;BME280;48284;46.828;29.480;2022-10-15T04:02:14;102041.13;;;20.97;53.32
62290;BME280;48284;46.828;29.480;2022-10-15T04:04:42;102041.13;;;20.97;53.37
62290;BME280;48284;46.828;29.480;2022-10-15T04:07:11;102041.03;;;20.90;53.49
62290;BME280;48284;46.828;29.480;2022-10-15T04:09:42;102045.44;;;20.90;54.17
62290;BME280;48284;46.828;29.480;2022-10-15T04:12:23;102041.31;;;20.95;53.86
62290;BME280;48284;46.828;29.480;2022-10-15T04:14:53;102044.38;;;20.99;54.19
62290;BME280;48284;46.828;29.480;2022-10-15T04:17:21;102046.97;;;20.99;54.39
62290;BME280;48284;46.828;29.480;2022-10-15T04:19:50;102048.78;;;20.98;54.03
62290;BME280;48284;46.828;29.480;2022-10-15T04:22:20;102047.97;;;20.98;54.27
62290;BME280;48284;46.828;29.480;2022-10-15T04:24:56;102043.56;;;20.98;53.86
62290;BME280;48284;46.828;29.480;2022-10-15T04:27:28;102048.78;;;20.98;53.94
62290;BME280;48284;46.828;29.480;2022-10-15T04:30:11;102046.34;;;20.97;54.01
62290;BME280;48284;46.828;29.480;2022-10-15T04:32:45;102051.38;;;20.98;54.12
62290;BME280;48284;46.828;29.480;2022-10-15T04:35:14;102042.75;;;20.98;53.80
62290;BME280;48284;46.828;29.480;2022-10-15T04:37:59;102046.34;;;20.97;54.00
62290;BME280;48284;46.828;29.480;2022-10-15T04:40:57;102046.53;;;20.95;54.18
62290;BME280;48284;46.828;29.480;2022-10-15T04:43:30;102049.13;;;20.95;53.72
62290;BME280;48284;46.828;29.480;2022-10-15T04:46:05;102056.78;;;20.97;54.31
62290;BME280;48284;46.828;29.480;2022-10-15T04:48:36;102055.97;;;20.96;53.91
62290;BME280;48284;46.828;29.480;2022-10-15T04:51:12;102053.53;;;20.95;53.98
62290;BME280;48284;46.828;29.480;2022-10-15T04:53:59;102055.44;;;20.86;54.18
62290;BME280;48284;46.828;29.480;2022-10-15T04:56:31;102049.75;;;20.82;54.13
62290;BME280;48284;46.828;29.480;2022-10-15T04:59:00;102045.81;;;20.87;54.32
62290;BME280;48284;46.828;29.480;2022-10-15T05:01:31;102050.03;;;20.88;54.01
62290;BME280;48284;46.828;29.480;2022-10-15T05:04:09;102048.88;;;20.90;53.74
62290;BME280;48284;46.828;29.480;2022-10-15T05:06:39;102058.31;;;20.91;53.71
62290;BME280;48284;46.828;29.480;2022-10-15T05:09:16;102057.50;;;20.91;54.02
62290;BME280;48284;46.828;29.480;2022-10-15T05:11:51;102059.75;;;20.94;54.00
62290;BME280;48284;46.828;29.480;2022-10-15T05:14:21;102061.38;;;20.95;54.01
62290;BME280;48284;46.828;29.480;2022-10-15T05:17:03;102058.94;;;20.93;53.89
62290;BME280;48284;46.828;29.480;2022-10-15T05:19:37;102056.34;;;20.93;53.95
62290;BME280;48284;46.828;29.480;2022-10-15T05:22:12;102049.50;;;20.92;53.74
62290;BME280;48284;46.828;29.480;2022-10-15T05:24:47;102056.69;;;20.90;53.81
62290;BME280;48284;46.828;29.480;2022-10-15T05:27:30;102060.28;;;20.89;53.98
62290;BME280;48284;46.828;29.480;2022-10-15T05:30:00;102069.75;;;20.90;54.03
62290;BME280;48284;46.828;29.480;2022-10-15T05:32:37;102066.31;;;20.90;53.88
62290;BME280;48284;46.828;29.480;2022-10-15T05:35:10;102070.38;;;20.92;53.88
62290;BME280;48284;46.828;29.480;2022-10-15T05:37:53;102077.41;;;20.92;53.99
62290;BME280;48284;46.828;29.480;2022-10-15T05:40:22;102071.63;;;20.81;54.03
62290;BME280;48284;46.828;29.480;2022-10-15T05:43:05;102079.97;;;20.77;54.39
62290;BME280;48284;46.828;29.480;2022-10-15T05:45:33;102076.84;;;20.81;54.09
62290;BME280;48284;46.828;29.480;2022-10-15T05:48:04;102074.88;;;20.83;54.20
62290;BME280;48284;46.828;29.480;2022-10-15T05:50:34;102076.50;;;20.84;53.70
62290;BME280;48284;46.828;29.480;2022-10-15T05:53:07;102072.88;;;20.86;54.14
62290;BME280;48284;46.828;29.480;2022-10-15T05:55:58;102084.94;;;20.87;53.79
62290;BME280;48284;46.828;29.480;2022-10-15T05:58:33;102082.34;;;20.87;54.15
62290;BME280;48284;46.828;29.480;2022-10-15T06:01:05;102087.56;;;20.87;54.27
62290;BME280;48284;46.828;29.480;2022-10-15T06:03:38;102086.56;;;20.88;54.35
62290;BME280;48284;46.828;29.480;2022-10-15T06:06:13;102089.19;;;20.88;54.17
62290;BME280;48284;46.828;29.480;2022-10-15T06:08:42;102091.78;;;20.88;53.87
62290;BME280;48284;46.828;29.480;2022-10-15T06:11:11;102090.00;;;20.88;54.02
62290;BME280;48284;46.828;29.480;2022-10-15T06:13:41;102085.59;;;20.89;53.80
62290;BME280;48284;46.828;29.480;2022-10-15T06:16:11;102093.88;;;20.92;54.00
62290;BME280;48284;46.828;29.480;2022-10-15T06:18:44;102094.84;;;20.91;54.21
62290;BME280;48284;46.828;29.480;2022-10-15T06:21:12;102099.25;;;20.91;54.24
62290;BME280;48284;46.828;29.480;2022-10-15T06:23:41;102095.22;;;20.88;54.52
62290;BME280;48284;46.828;29.480;2022-10-15T06:26:09;102095.38;;;20.87;54.42
62290;BME280;48284;46.828;29.480;2022-10-15T06:28:42;102095.22;;;20.88;54.26
62290;BME280;48284;46.828;29.480;2022-10-15T06:31:10;102100.06;;;20.91;54.01
62290;BME280;48284;46.828;29.480;2022-10-15T06:33:39;102093.22;;;20.90;54.23
62290;BME280;48284;46.828;29.480;2022-10-15T06:36:09;102098.44;;;20.90;54.24
62290;BME280;48284;46.828;29.480;2022-10-15T06:38:39;102101.69;;;20.92;54.13
62290;BME280;48284;46.828;29.480;2022-10-15T06:41:10;102102.88;;;20.90;54.25
62290;BME280;48284;46.828;29.480;2022-10-15T06:43:38;102102.41;;;20.86;54.49
62290;BME280;48284;46.828;29.480;2022-10-15T06:46:09;102108.63;;;20.85;54.26
62290;BME280;48284;46.828;29.480;2022-10-15T06:48:38;102104.38;;;20.84;54.32
62290;BME280;48284;46.828;29.480;2022-10-15T06:51:06;102104.56;;;20.82;54.35
62290;BME280;48284;46.828;29.480;2022-10-15T06:53:35;102102.13;;;20.81;54.57
62290;BME280;48284;46.828;29.480;2022-10-15T06:56:06;102102.28;;;20.79;54.30
62290;BME280;48284;46.828;29.480;2022-10-15T06:58:37;102101.66;;;20.77;54.94
62290;BME280;48284;46.828;29.480;2022-10-15T07:01:09;102103.91;;;20.80;54.90
62290;BME280;48284;46.828;29.480;2022-10-15T07:03:38;102107.16;;;20.82;54.75
62290;BME280;48284;46.828;29.480;2022-10-15T07:06:07;102105.56;;;20.81;54.68
62290;BME280;48284;46.828;29.480;2022-10-15T07:08:36;102112.25;;;20.76;54.69
62290;BME280;48284;46.828;29.480;2022-10-15T07:11:05;102109.97;;;20.81;54.70
62290;BME280;48284;46.828;29.480;2022-10-15T07:13:34;102114.28;;;20.89;54.43
62290;BME280;48284;46.828;29.480;2022-10-15T07:16:04;102105.38;;;20.98;54.17
62290;BME280;48284;46.828;29.480;2022-10-15T07:18:34;102114.94;;;21.05;54.00
62290;BME280;48284;46.828;29.480;2022-10-15T07:21:04;102116.03;;;21.11;53.94
62290;BME280;48284;46.828;29.480;2022-10-15T07:23:33;102106.84;;;21.15;53.77
62290;BME280;48284;46.828;29.480;2022-10-15T07:26:02;102116.56;;;21.21;54.00
62290;BME280;48284;46.828;29.480;2022-10-15T07:28:30;102104.16;;;21.23;53.88
62290;BME280;48284;46.828;29.480;2022-10-15T07:31:00;102113.25;;;21.27;53.90
62290;BME280;48284;46.828;29.480;2022-10-15T07:33:29;102110.66;;;21.27;53.97
62290;BME280;48284;46.828;29.480;2022-10-15T07:36:01;102114.88;;;21.28;53.84
62290;BME280;48284;46.828;29.480;2022-10-15T07:38:30;102103.44;;;21.29;53.97
62290;BME280;48284;46.828;29.480;2022-10-15T07:40:59;102107.06;;;21.28;54.11
62290;BME280;48284;46.828;29.480;2022-10-15T07:43:31;102104.25;;;21.30;53.87
62290;BME280;48284;46.828;29.480;2022-10-15T07:46:00;102104.06;;;21.31;53.93
62290;BME280;48284;46.828;29.480;2022-10-15T07:48:29;102105.69;;;21.32;54.41
62290;BME280;48284;46.828;29.480;2022-10-15T07:51:00;102105.69;;;21.32;54.34
62290;BME280;48284;46.828;29.480;2022-10-15T07:53:29;102107.13;;;21.35;53.98
62290;BME280;48284;46.828;29.480;2022-10-15T07:55:59;102111.19;;;21.37;54.17
62290;BME280;48284;46.828;29.480;2022-10-15T07:58:31;102104.16;;;21.38;54.06
62290;BME280;48284;46.828;29.480;2022-10-15T08:01:00;102115.28;;;21.40;54.32
62290;BME280;48284;46.828;29.480;2022-10-15T08:03:29;102110.31;;;21.45;54.24
62290;BME280;48284;46.828;29.480;2022-10-15T08:06:00;102109.94;;;21.48;53.75
62290;BME280;48284;46.828;29.480;2022-10-15T08:08:30;102115.78;;;21.50;54.28
62290;BME280;48284;46.828;29.480;2022-10-15T08:11:03;102113.00;;;21.52;53.48
62290;BME280;48284;46.828;29.480;2022-10-15T08:13:32;102116.59;;;21.51;53.88
62290;BME280;48284;46.828;29.480;2022-10-15T08:16:01;102110.13;;;21.46;54.12
62290;BME280;48284;46.828;29.480;2022-10-15T08:18:29;102112.75;;;21.46;53.59
62290;BME280;48284;46.828;29.480;2022-10-15T08:21:00;102113.91;;;21.44;53.72
62290;BME280;48284;46.828;29.480;2022-10-15T08:23:29;102118.16;;;21.45;54.06
62290;BME280;48284;46.828;29.480;2022-10-15T08:25:58;102114.09;;;21.42;53.76
62290;BME280;48284;46.828;29.480;2022-10-15T08:28:27;102118.50;;;21.42;53.50
62290;BME280;48284;46.828;29.480;2022-10-15T08:30:56;102110.84;;;21.40;53.95
62290;BME280;48284;46.828;29.480;2022-10-15T08:33:31;102107.25;;;21.41;53.73
62290;BME280;48284;46.828;29.480;2022-10-15T08:36:03;102108.69;;;21.44;53.94
62290;BME280;48284;46.828;29.480;2022-10-15T08:38:32;102109.13;;;21.48;53.87
62290;BME280;48284;46.828;29.480;2022-10-15T08:41:03;102114.19;;;21.49;53.70
62290;BME280;48284;46.828;29.480;2022-10-15T08:43:36;102116.59;;;21.51;53.73
62290;BME280;48284;46.828;29.480;2022-10-15T08:46:16;102116.59;;;21.51;53.61
62290;BME280;48284;46.828;29.480;2022-10-15T08:48:47;102114.44;;;21.54;53.65
62290;BME280;48284;46.828;29.480;2022-10-15T08:51:19;102111.03;;;21.54;53.65
62290;BME280;48284;46.828;29.480;2022-10-15T08:53:52;102116.25;;;21.54;54.40
62290;BME280;48284;46.828;29.480;2022-10-15T08:56:25;102114.81;;;21.51;54.43
62290;BME280;48284;46.828;29.480;2022-10-15T08:58:58;102120.22;;;21.50;54.27
62290;BME280;48284;46.828;29.480;2022-10-15T09:01:33;102117.59;;;21.50;54.48
62290;BME280;48284;46.828;29.480;2022-10-15T09:04:15;102118.22;;;21.52;54.70
62290;BME280;48284;46.828;29.480;2022-10-15T09:06:49;102111.38;;;21.51;54.51
62290;BME280;48284;46.828;29.480;2022-10-15T09:09:25;102105.97;;;21.52;54.26
62290;BME280;48284;46.828;29.480;2022-10-15T09:12:03;102110.03;;;21.55;54.28
62290;BME280;48284;46.828;29.480;2022-10-15T09:14:37;102109.84;;;21.56;54.58
62290;BME280;48284;46.828;29.480;2022-10-15T09:17:16;102100.66;;;21.60;54.22
62290;BME280;48284;46.828;29.480;2022-10-15T09:19:49;102101.91;;;21.64;54.17
62290;BME280;48284;46.828;29.480;2022-10-15T09:22:23;102109.81;;;21.71;54.12
62290;BME280;48284;46.828;29.480;2022-10-15T09:24:54;102106.03;;;21.73;54.57
62290;BME280;48284;46.828;29.480;2022-10-15T09:27:29;102110.06;;;21.76;54.13
62290;BME280;48284;46.828;29.480;2022-10-15T09:30:04;102114.75;;;21.81;54.63
62290;BME280;48284;46.828;29.480;2022-10-15T09:32:38;102114.81;;;21.87;54.04
62290;BME280;48284;46.828;29.480;2022-10-15T09:35:13;102112.84;;;21.89;54.26
62290;BME280;48284;46.828;29.480;2022-10-15T09:37:49;102112.47;;;21.92;54.42
62290;BME280;48284;46.828;29.480;2022-10-15T09:40:30;102109.16;;;21.98;54.27
62290;BME280;48284;46.828;29.480;2022-10-15T09:42:59;102111.03;;;22.04;54.59
62290;BME280;48284;46.828;29.480;2022-10-15T09:45:29;102106.44;;;22.06;54.73
62290;BME280;48284;46.828;29.480;2022-10-15T09:47:59;102110.06;;;22.05;54.95
62290;BME280;48284;46.828;29.480;2022-10-15T09:50:36;102104.44;;;22.08;54.93
62290;BME280;48284;46.828;29.480;2022-10-15T09:53:17;102110.31;;;22.11;54.88
62290;BME280;48284;46.828;29.480;2022-10-15T09:56:01;102105.69;;;22.13;54.92
62290;BME280;48284;46.828;29.480;2022-10-15T09:58:37;102103.09;;;22.13;54.61
62290;BME280;48284;46.828;29.480;2022-10-15T10:01:16;102096.03;;;22.13;54.75
62290;BME280;48284;46.828;29.480;2022-10-15T10:03:50;102099.47;;;22.14;54.99
62290;BME280;48284;46.828;29.480;2022-10-15T10:06:21;102099.91;;;22.17;54.38
62290;BME280;48284;46.828;29.480;2022-10-15T10:08:55;102099.53;;;22.20;54.79
62290;BME280;48284;46.828;29.480;2022-10-15T10:11:26;102090.94;;;22.26;54.64
62290;BME280;48284;46.828;29.480;2022-10-15T10:13:55;102097.72;;;22.21;54.47
62290;BME280;48284;46.828;29.480;2022-10-15T10:16:24;102101.34;;;22.20;54.92
62290;BME280;48284;46.828;29.480;2022-10-15T10:19:05;102102.59;;;22.24;54.59
62290;BME280;48284;46.828;29.480;2022-10-15T10:21:39;102101.22;;;22.28;54.53
62290;BME280;48284;46.828;29.480;2022-10-15T10:24:27;102102.06;;;22.35;55.03
62290;BME280;48284;46.828;29.480;2022-10-15T10:26:58;102097.47;;;22.37;55.02
62290;BME280;48284;46.828;29.480;2022-10-15T10:29:27;102092.47;;;22.42;55.10
62290;BME280;48284;46.828;29.480;2022-10-15T10:32:09;102097.97;;;22.47;55.62
62290;BME280;48284;46.828;29.480;2022-10-15T10:34:41;102087.13;;;22.50;55.64
62290;BME280;48284;46.828;29.480;2022-10-15T10:37:17;102091.63;;;22.56;55.02
62290;BME280;48284;46.828;29.480;2022-10-15T10:39:53;102094.66;;;22.60;55.20
62290;BME280;48284;46.828;29.480;2022-10-15T10:45:19;102083.38;;;22.59;55.79
62290;BME280;48284;46.828;29.480;2022-10-15T10:47:48;102088.06;;;22.64;55.26
62290;BME280;48284;46.828;29.480;2022-10-15T10:50:35;102078.00;;;22.67;55.29
62290;BME280;48284;46.828;29.480;2022-10-15T10:53:19;102086.28;;;22.71;55.63
62290;BME280;48284;46.828;29.480;2022-10-15T10:55:51;102085.09;;;22.73;55.39
62290;BME280;48284;46.828;29.480;2022-10-15T10:58:26;102082.09;;;22.77;55.44
62290;BME280;48284;46.828;29.480;2022-10-15T11:00:56;102074.88;;;22.79;55.11
62290;BME280;48284;46.828;29.480;2022-10-15T11:03:30;102074.69;;;22.80;55.51
62290;BME280;48284;46.828;29.480;2022-10-15T11:06:20;102073.50;;;22.83;54.77
62290;BME280;48284;46.828;29.480;2022-10-15T11:09:01;102071.69;;;22.83;54.79
62290;BME280;48284;46.828;29.480;2022-10-15T11:11:41;102062.22;;;22.82;55.35
62290;BME280;48284;46.828;29.480;2022-10-15T11:14:21;102062.03;;;22.84;54.78
62290;BME280;48284;46.828;29.480;2022-10-15T11:17:01;102065.47;;;22.84;55.05
62290;BME280;48284;46.828;29.480;2022-10-15T11:19:37;102062.66;;;22.86;54.62
62290;BME280;48284;46.828;29.480;2022-10-15T11:22:40;102066.09;;;22.86;54.64
62290;BME280;48284;46.828;29.480;2022-10-15T11:25:20;102061.06;;;22.91;54.62
62290;BME280;48284;46.828;29.480;2022-10-15T11:28:09;102062.50;;;22.94;54.89
62290;BME280;48284;46.828;29.480;2022-10-15T11:30:48;102059.88;;;22.94;55.15
62290;BME280;48284;46.828;29.480;2022-10-15T11:36:24;102053.25;;;22.98;54.63
62290;BME280;48284;46.828;29.480;2022-10-15T11:39:02;102052.25;;;22.99;55.00
62290;BME280;48284;46.828;29.480;2022-10-15T11:41:42;102051.44;;;22.98;54.87
62290;BME280;48284;46.828;29.480;2022-10-15T11:44:37;102054.50;;;23.02;54.52
62290;BME280;48284;46.828;29.480;2022-10-15T11:47:24;102054.06;;;22.98;54.41
62290;BME280;48284;46.828;29.480;2022-10-15T11:50:07;102056.31;;;23.01;54.37
62290;BME280;48284;46.828;29.480;2022-10-15T11:52:51;102061.72;;;23.00;54.28
62290;BME280;48284;46.828;29.480;2022-10-15T11:55:26;102060.72;;;23.01;55.80
62290;BME280;48284;46.828;29.480;2022-10-15T11:57:59;102059.72;;;23.02;55.71
62290;BME280;48284;46.828;29.480;2022-10-15T12:00:33;102057.09;;;23.02;55.84
62290;BME280;48284;46.828;29.480;2022-10-15T12:03:05;102058.91;;;23.01;56.35
62290;BME280;48284;46.828;29.480;2022-10-15T12:05:43;102052.69;;;23.02;56.68
62290;BME280;48284;46.828;29.480;2022-10-15T12:08:15;102050.06;;;23.02;55.97
62290;BME280;48284;46.828;29.480;2022-10-15T12:10:59;102060.16;;;23.06;56.07
62290;BME280;48284;46.828;29.480;2022-10-15T12:13:37;102051.69;;;23.03;56.73
62290;BME280;48284;46.828;29.480;2022-10-15T12:16:18;102054.28;;;23.03;56.47
62290;BME280;48284;46.828;29.480;2022-10-15T12:18:56;102050.25;;;23.01;57.51
62290;BME280;48284;46.828;29.480;2022-10-15T12:21:31;102055.50;;;23.01;57.30
62290;BME280;48284;46.828;29.480;2022-10-15T12:24:00;102047.63;;;23.01;56.95
62290;BME280;48284;46.828;29.480;2022-10-15T12:26:30;102056.31;;;23.01;57.05
62290;BME280;48284;46.828;29.480;2022-10-15T12:29:04;102054.50;;;23.02;56.74
62290;BME280;48284;46.828;29.480;2022-10-15T12:31:45;102057.72;;;23.04;56.38
62290;BME280;48284;46.828;29.480;2022-10-15T12:34:31;102060.97;;;23.06;56.81
62290;BME280;48284;46.828;29.480;2022-10-15T12:37:06;102054.72;;;23.07;56.21
62290;BME280;48284;46.828;29.480;2022-10-15T12:39:43;102058.16;;;23.08;56.50
62290;BME280;48284;46.828;29.480;2022-10-15T12:42:22;102055.31;;;23.09;56.40
62290;BME280;48284;46.828;29.480;2022-10-15T12:44:54;102056.94;;;23.10;56.36
62290;BME280;48284;46.828;29.480;2022-10-15T12:47:46;102051.50;;;23.12;56.35
62290;BME280;48284;46.828;29.480;2022-10-15T12:50:18;102057.75;;;23.11;55.97
62290;BME280;48284;46.828;29.480;2022-10-15T12:52:58;102049.69;;;23.12;56.09
62290;BME280;48284;46.828;29.480;2022-10-15T12:55:32;102052.16;;;23.14;55.94
62290;BME280;48284;46.828;29.480;2022-10-15T12:58:30;102047.72;;;23.14;55.90
62290;BME280;48284;46.828;29.480;2022-10-15T13:01:03;102052.97;;;23.14;56.19
62290;BME280;48284;46.828;29.480;2022-10-15T13:03:37;102051.34;;;23.13;56.27
62290;BME280;48284;46.828;29.480;2022-10-15T13:06:31;102052.97;;;23.14;56.02
62290;BME280;48284;46.828;29.480;2022-10-15T13:09:05;102049.69;;;23.12;56.00
62290;BME280;48284;46.828;29.480;2022-10-15T13:11:46;102050.53;;;23.13;56.03
62290;BME280;48284;46.828;29.480;2022-10-15T13:14:27;102046.28;;;23.12;55.82
62290;BME280;48284;46.828;29.480;2022-10-15T13:17:00;102043.03;;;23.10;56.12
62290;BME280;48284;46.828;29.480;2022-10-15T13:19:33;102042.84;;;23.11;55.95
62290;BME280;48284;46.828;29.480;2022-10-15T13:22:06;102043.84;;;23.10;56.11
62290;BME280;48284;46.828;29.480;2022-10-15T13:24:47;102043.25;;;23.08;55.99